createdAt,value
2023-03-29T00:00:38.567Z,7.66
2023-03-29T00:01:38.543Z,7.62
2023-03-29T00:02:38.654Z,7.60
2023-03-29T00:03:38.617Z,7.64
2023-03-29T00:04:38.576Z,7.69
2023-03-29T00:05:38.505Z,7.77
2023-03-29T00:06:38.498Z,7.71
2023-03-29T00:07:38.510Z,7.69
2023-03-29T00:08:38.482Z,7.76
2023-03-29T00:09:38.483Z,7.76
2023-03-29T00:10:38.463Z,7.78
2023-03-29T00:11:38.458Z,7.77
2023-03-29T00:12:38.438Z,7.76
2023-03-29T00:13:38.433Z,7.73
2023-03-29T00:14:38.421Z,7.73
2023-03-29T00:15:38.429Z,7.68
2023-03-29T00:16:38.435Z,7.71
2023-03-29T00:17:38.465Z,7.81
2023-03-29T00:18:38.402Z,7.81
2023-03-29T00:19:38.375Z,7.66
2023-03-29T00:20:38.371Z,7.69
2023-03-29T00:21:38.366Z,7.76
2023-03-29T00:22:38.343Z,7.68
2023-03-29T00:23:38.349Z,7.73
2023-03-29T00:24:38.324Z,7.69
2023-03-29T00:25:38.318Z,7.78
2023-03-29T00:26:38.301Z,7.69
2023-03-29T00:27:38.292Z,7.77
2023-03-29T00:28:38.301Z,7.74
2023-03-29T00:29:38.299Z,7.73
2023-03-29T00:30:38.298Z,7.61
2023-03-29T00:31:38.395Z,7.64
2023-03-29T00:32:38.329Z,7.69
2023-03-29T00:33:38.252Z,7.68
2023-03-29T00:34:38.227Z,7.66
2023-03-29T00:35:38.230Z,7.71
2023-03-29T00:36:38.214Z,7.66
2023-03-29T00:37:38.209Z,7.62
2023-03-29T00:38:38.202Z,7.64
2023-03-29T00:39:38.182Z,7.55
2023-03-29T00:40:38.175Z,7.62
2023-03-29T00:41:38.159Z,7.58
2023-03-29T00:42:38.157Z,7.60
2023-03-29T00:43:38.145Z,7.60
2023-03-29T00:44:38.139Z,7.54
2023-03-29T00:45:38.132Z,7.50
2023-03-29T00:46:38.118Z,7.52
2023-03-29T00:47:38.185Z,7.60
2023-03-29T00:48:38.088Z,7.62
2023-03-29T00:49:38.081Z,7.58
2023-03-29T00:50:38.067Z,7.62
2023-03-29T00:51:38.066Z,7.61
2023-03-29T00:52:38.049Z,7.57
2023-03-29T00:53:38.046Z,7.57
2023-03-29T00:54:38.029Z,7.60
2023-03-29T00:55:38.027Z,7.52
2023-03-29T00:56:38.064Z,7.54
2023-03-29T00:57:38.004Z,7.57
2023-03-29T00:58:37.996Z,7.57
2023-03-29T00:59:37.978Z,7.60
2023-03-29T01:00:37.968Z,7.64
2023-03-29T01:01:38.017Z,7.68
2023-03-29T01:02:38.002Z,7.57
2023-03-29T01:03:38.119Z,7.58
2023-03-29T01:04:37.933Z,7.62
2023-03-29T01:05:37.939Z,7.58
2023-03-29T01:06:37.968Z,7.66
2023-03-29T01:07:37.899Z,7.69
2023-03-29T01:08:37.896Z,7.69
2023-03-29T01:09:37.887Z,7.64
2023-03-29T01:10:37.896Z,7.54
2023-03-29T01:11:37.870Z,7.64
2023-03-29T01:12:37.842Z,7.64
2023-03-29T01:13:37.837Z,7.64
2023-03-29T01:14:37.839Z,7.54
2023-03-29T01:15:37.834Z,7.57
2023-03-29T01:16:37.854Z,7.68
2023-03-29T01:17:37.825Z,7.66
2023-03-29T01:18:37.793Z,7.58
2023-03-29T01:19:37.781Z,7.60
2023-03-29T01:20:37.772Z,7.62
2023-03-29T01:21:37.771Z,7.61
2023-03-29T01:22:37.749Z,7.62
2023-03-29T01:23:37.741Z,7.62
2023-03-29T01:24:37.734Z,7.66
2023-03-29T01:25:37.721Z,7.61
2023-03-29T01:26:37.702Z,7.68
2023-03-29T01:27:37.705Z,7.62
2023-03-29T01:28:37.689Z,7.64
2023-03-29T01:29:37.687Z,7.64
2023-03-29T01:30:37.675Z,7.60
2023-03-29T01:31:37.735Z,7.64
2023-03-29T01:32:37.714Z,7.68
2023-03-29T01:33:37.646Z,7.64
2023-03-29T01:34:37.641Z,7.74
2023-03-29T01:35:37.669Z,7.64
2023-03-29T01:36:37.618Z,7.73
2023-03-29T01:37:37.637Z,7.69
2023-03-29T01:38:37.598Z,7.71
2023-03-29T01:39:37.592Z,7.68
2023-03-29T01:40:48.397Z,7.69
2023-03-29T01:43:21.728Z,7.66
2023-03-29T01:44:21.737Z,7.68
2023-03-29T01:45:21.694Z,7.68
2023-03-29T01:46:22.055Z,7.68
2023-03-29T01:47:21.706Z,7.74
2023-03-29T01:48:21.657Z,7.77
2023-03-29T01:49:21.638Z,7.73
2023-03-29T01:50:49.268Z,7.73
2023-03-29T01:51:26.288Z,7.77
2023-03-29T01:52:43.256Z,7.78
2023-03-29T01:53:21.611Z,7.74
2023-03-29T01:54:21.591Z,7.76
2023-03-29T01:55:21.586Z,7.74
2023-03-29T01:56:21.601Z,7.73
2023-03-29T01:57:21.606Z,7.71
2023-03-29T01:58:21.552Z,7.74
2023-03-29T01:59:21.543Z,7.71
2023-03-29T02:00:21.546Z,7.71
2023-03-29T02:01:21.536Z,7.71
2023-03-29T02:02:21.556Z,7.77
2023-03-29T02:03:21.713Z,7.77
2023-03-29T02:04:21.495Z,7.66
2023-03-29T02:05:21.486Z,7.74
2023-03-29T02:06:21.481Z,7.74
2023-03-29T02:07:21.497Z,7.80
2023-03-29T02:08:21.494Z,7.77
2023-03-29T02:09:21.461Z,7.78
2023-03-29T02:10:21.441Z,7.91
2023-03-29T02:11:21.436Z,7.81
2023-03-29T02:12:21.417Z,7.80
2023-03-29T02:13:21.420Z,7.88
2023-03-29T02:14:21.398Z,7.95
2023-03-29T02:15:21.386Z,7.92
2023-03-29T02:16:21.404Z,7.88
2023-03-29T02:17:21.365Z,7.96
2023-03-29T02:18:21.364Z,7.87
2023-03-29T02:19:21.360Z,7.87
2023-03-29T02:20:21.340Z,7.99
2023-03-29T02:21:21.335Z,7.91
2023-03-29T02:22:21.321Z,7.87
2023-03-29T02:23:21.368Z,7.87
2023-03-29T02:24:21.304Z,7.99
2023-03-29T02:25:21.292Z,7.95
2023-03-29T02:26:21.284Z,7.96
2023-03-29T02:27:21.297Z,7.95
2023-03-29T02:28:21.267Z,7.94
2023-03-29T02:29:21.264Z,8.04
2023-03-29T02:30:21.265Z,8.01
2023-03-29T02:31:21.303Z,7.98
2023-03-29T02:32:21.233Z,7.91
2023-03-29T02:33:21.225Z,7.95
2023-03-29T02:34:21.217Z,7.92
2023-03-29T02:35:21.204Z,7.96
2023-03-29T02:36:21.197Z,8.01
2023-03-29T02:37:21.173Z,7.87
2023-03-29T02:38:21.178Z,7.86
2023-03-29T02:39:21.173Z,7.86
2023-03-29T02:40:21.156Z,7.95
2023-03-29T02:41:21.153Z,8.01
2023-03-29T02:42:21.139Z,7.96
2023-03-29T02:43:22.236Z,7.92
2023-03-29T02:44:21.127Z,7.88
2023-03-29T02:45:21.105Z,8.01
2023-03-29T02:46:21.176Z,7.99
2023-03-29T02:47:21.091Z,8.06
2023-03-29T02:48:21.082Z,7.92
2023-03-29T02:49:21.060Z,7.94
2023-03-29T02:50:21.086Z,8.01
2023-03-29T02:51:21.048Z,7.95
2023-03-29T02:52:21.047Z,7.88
2023-03-29T02:53:21.030Z,7.98
2023-03-29T02:54:21.031Z,7.94
2023-03-29T02:55:21.021Z,7.92
2023-03-29T02:56:21.027Z,8.02
2023-03-29T02:57:21.056Z,8.04
2023-03-29T02:58:20.996Z,7.98
2023-03-29T02:59:20.993Z,8.02
2023-03-29T03:00:20.979Z,8.04
2023-03-29T03:01:21.018Z,8.05
2023-03-29T03:02:21.096Z,7.99
2023-03-29T03:03:21.029Z,7.91
2023-03-29T03:04:20.947Z,8.01
2023-03-29T03:05:20.946Z,8.05
2023-03-29T03:06:20.912Z,8.01
2023-03-29T03:07:20.922Z,8.04
2023-03-29T03:08:20.907Z,8.02
2023-03-29T03:09:20.897Z,8.06
2023-03-29T03:10:21.697Z,8.13
2023-03-29T03:11:20.886Z,8.02
2023-03-29T03:12:20.868Z,8.12
2023-03-29T03:13:20.860Z,8.14
2023-03-29T03:14:20.847Z,8.02
2023-03-29T03:15:20.848Z,8.14
2023-03-29T03:16:20.863Z,8.01
2023-03-29T03:17:20.854Z,8.19
2023-03-29T03:18:20.809Z,8.10
2023-03-29T03:19:20.807Z,8.02
2023-03-29T03:20:20.788Z,8.12
2023-03-29T03:21:20.792Z,8.19
2023-03-29T03:22:20.795Z,8.17
2023-03-29T03:23:20.775Z,8.12
2023-03-29T03:24:20.765Z,8.09
2023-03-29T03:25:20.752Z,8.13
2023-03-29T03:26:20.734Z,8.17
2023-03-29T03:27:20.726Z,8.14
2023-03-29T03:28:20.734Z,8.17
2023-03-29T03:29:20.729Z,8.16
2023-03-29T03:30:20.707Z,8.14
2023-03-29T03:31:20.723Z,8.19
2023-03-29T03:32:20.682Z,8.13
2023-03-29T03:33:20.676Z,8.20
2023-03-29T03:34:20.665Z,8.17
2023-03-29T03:35:20.658Z,8.23
2023-03-29T03:36:20.644Z,8.21
2023-03-29T03:37:20.645Z,8.24
2023-03-29T03:38:20.642Z,8.24
2023-03-29T03:39:20.627Z,8.14
2023-03-29T03:40:20.620Z,8.16
2023-03-29T03:41:20.604Z,8.17
2023-03-29T03:42:20.609Z,8.16
2023-03-29T03:43:20.597Z,8.21
2023-03-29T03:44:20.576Z,8.16
2023-03-29T03:45:20.565Z,8.14
2023-03-29T03:46:20.585Z,8.19
2023-03-29T03:47:20.553Z,8.17
2023-03-29T03:48:20.553Z,8.13
2023-03-29T03:49:20.538Z,8.19
2023-03-29T03:50:20.542Z,8.21
2023-03-29T03:51:21.274Z,8.20
2023-03-29T03:52:20.508Z,8.17
2023-03-29T03:53:20.515Z,8.19
2023-03-29T03:54:22.330Z,8.13
2023-03-29T03:55:20.469Z,8.05
2023-03-29T03:56:20.500Z,8.05
2023-03-29T03:57:20.527Z,8.16
2023-03-29T03:58:20.453Z,8.19
2023-03-29T03:59:20.444Z,8.17
2023-03-29T04:00:20.441Z,8.17
2023-03-29T04:01:20.422Z,8.23
2023-03-29T04:02:20.454Z,8.19
2023-03-29T04:03:20.472Z,8.28
2023-03-29T04:04:20.440Z,8.24
2023-03-29T04:05:20.399Z,8.32
2023-03-29T04:06:20.389Z,8.32
2023-03-29T04:07:20.375Z,8.29
2023-03-29T04:08:20.372Z,8.32
2023-03-29T04:09:20.356Z,8.26
2023-03-29T04:10:20.357Z,8.19
2023-03-29T04:11:20.349Z,8.28
2023-03-29T04:12:20.329Z,8.29
2023-03-29T04:13:20.321Z,8.23
2023-03-29T04:14:21.302Z,8.21
2023-03-29T04:15:20.355Z,8.26
2023-03-29T04:16:20.364Z,8.23
2023-03-29T04:17:20.286Z,8.29
2023-03-29T04:18:20.359Z,8.31
2023-03-29T04:19:20.271Z,8.28
2023-03-29T04:20:20.297Z,8.21
2023-03-29T04:21:21.318Z,8.26
2023-03-29T04:22:20.278Z,8.21
2023-03-29T04:23:20.236Z,8.23
2023-03-29T04:24:20.325Z,8.23
2023-03-29T04:25:20.224Z,8.39
2023-03-29T04:26:20.220Z,8.32
2023-03-29T04:27:20.204Z,8.41
2023-03-29T04:28:20.218Z,8.35
2023-03-29T04:29:20.189Z,8.38
2023-03-29T04:30:20.176Z,8.31
2023-03-29T04:31:20.195Z,8.29
2023-03-29T04:32:20.170Z,8.39
2023-03-29T04:33:20.158Z,8.37
2023-03-29T04:34:20.149Z,8.32
2023-03-29T04:35:20.142Z,8.31
2023-03-29T04:36:20.166Z,8.34
2023-03-29T04:37:20.121Z,8.35
2023-03-29T04:38:20.105Z,8.44
2023-03-29T04:39:20.105Z,8.47
2023-03-29T04:40:20.097Z,8.38
2023-03-29T04:41:20.092Z,8.44
2023-03-29T04:42:20.085Z,8.42
2023-03-29T04:43:20.086Z,8.46
2023-03-29T04:44:20.064Z,8.35
2023-03-29T04:45:20.085Z,8.34
2023-03-29T04:46:20.099Z,8.47
2023-03-29T04:47:20.039Z,8.42
2023-03-29T04:48:20.040Z,8.46
2023-03-29T04:49:20.025Z,8.46
2023-03-29T04:50:20.011Z,8.34
2023-03-29T04:51:20.005Z,8.37
2023-03-29T04:52:23.217Z,8.39
2023-03-29T04:53:19.995Z,8.39
2023-03-29T04:54:19.982Z,8.39
2023-03-29T04:55:19.974Z,8.34
2023-03-29T04:56:19.961Z,8.38
2023-03-29T04:57:19.987Z,8.35
2023-03-29T04:58:22.543Z,8.49
2023-03-29T04:59:19.938Z,8.34
2023-03-29T05:00:19.929Z,8.34
2023-03-29T05:01:19.967Z,8.37
2023-03-29T05:02:19.902Z,8.35
2023-03-29T05:03:19.916Z,8.35
2023-03-29T05:04:19.933Z,8.44
2023-03-29T05:05:19.889Z,8.42
2023-03-29T05:06:19.870Z,8.47
2023-03-29T05:07:19.877Z,8.46
2023-03-29T05:08:19.861Z,8.38
2023-03-29T05:09:19.851Z,8.35
2023-03-29T05:10:19.840Z,8.44
2023-03-29T05:11:19.838Z,8.32
2023-03-29T05:12:19.826Z,8.37
2023-03-29T05:13:19.815Z,8.31
2023-03-29T05:14:19.802Z,8.35
2023-03-29T05:15:19.843Z,8.35
2023-03-29T05:16:19.953Z,8.35
2023-03-29T05:17:19.817Z,8.32
2023-03-29T05:18:19.769Z,8.35
2023-03-29T05:19:19.764Z,8.49
2023-03-29T05:20:19.757Z,8.44
2023-03-29T05:21:19.739Z,8.42
2023-03-29T05:22:19.743Z,8.44
2023-03-29T05:23:19.737Z,8.52
2023-03-29T05:24:19.724Z,8.52
2023-03-29T05:25:19.718Z,8.56
2023-03-29T05:26:19.706Z,8.53
2023-03-29T05:27:19.702Z,8.47
2023-03-29T05:28:19.719Z,8.39
2023-03-29T05:29:19.678Z,8.52
2023-03-29T05:30:19.670Z,8.55
2023-03-29T05:31:19.711Z,8.53
2023-03-29T05:32:19.661Z,8.53
2023-03-29T05:33:19.655Z,8.59
2023-03-29T05:34:19.636Z,8.60
2023-03-29T05:35:19.631Z,8.53
2023-03-29T05:36:19.625Z,8.60
2023-03-29T05:37:19.615Z,8.56
2023-03-29T05:38:19.605Z,8.60
2023-03-29T05:39:19.599Z,8.56
2023-03-29T05:40:19.585Z,8.55
2023-03-29T05:41:19.590Z,8.52
2023-03-29T05:42:19.573Z,8.52
2023-03-29T05:43:19.591Z,8.63
2023-03-29T05:44:19.556Z,8.50
2023-03-29T05:45:19.552Z,8.50
2023-03-29T05:46:19.689Z,8.52
2023-03-29T05:47:19.530Z,8.52
2023-03-29T05:48:19.522Z,8.52
2023-03-29T05:49:19.513Z,8.57
2023-03-29T05:50:19.504Z,8.59
2023-03-29T05:51:19.501Z,8.62
2023-03-29T05:52:19.495Z,8.70
2023-03-29T05:53:19.482Z,8.75
2023-03-29T05:54:19.484Z,8.77
2023-03-29T05:55:19.467Z,8.72
2023-03-29T05:56:19.466Z,8.72
2023-03-29T05:57:19.464Z,8.72
2023-03-29T05:58:19.448Z,8.75
2023-03-29T05:59:19.429Z,8.78
2023-03-29T06:00:19.437Z,8.63
2023-03-29T06:01:19.418Z,8.59
2023-03-29T06:02:19.423Z,8.65
2023-03-29T06:03:21.490Z,8.68
2023-03-29T06:04:19.514Z,8.70
2023-03-29T06:05:19.374Z,8.74
2023-03-29T06:06:19.379Z,8.70
2023-03-29T06:07:19.371Z,8.71
2023-03-29T06:08:19.359Z,8.74
2023-03-29T06:09:19.345Z,8.77
2023-03-29T06:10:19.355Z,8.81
2023-03-29T06:11:19.330Z,8.77
2023-03-29T06:12:19.880Z,8.83
2023-03-29T06:13:19.313Z,8.80
2023-03-29T06:14:19.309Z,8.88
2023-03-29T06:15:19.301Z,8.81
2023-03-29T06:16:19.309Z,8.92
2023-03-29T06:17:19.361Z,8.96
2023-03-29T06:18:19.282Z,9.03
2023-03-29T06:19:19.308Z,8.96
2023-03-29T06:20:19.260Z,8.98
2023-03-29T06:21:19.254Z,8.83
2023-03-29T06:22:19.255Z,8.80
2023-03-29T06:23:19.249Z,8.85
2023-03-29T06:24:19.249Z,8.85
2023-03-29T06:25:19.211Z,8.81
2023-03-29T06:26:19.213Z,8.83
2023-03-29T06:27:19.223Z,8.98
2023-03-29T06:28:19.236Z,8.98
2023-03-29T06:29:19.199Z,8.89
2023-03-29T06:30:19.180Z,8.92
2023-03-29T06:31:19.205Z,8.88
2023-03-29T06:32:19.161Z,8.98
2023-03-29T06:33:19.155Z,8.89
2023-03-29T06:34:19.162Z,8.96
2023-03-29T06:35:19.149Z,9.01
2023-03-29T06:36:19.890Z,9.01
2023-03-29T06:37:19.124Z,8.92
2023-03-29T06:38:19.114Z,8.96
2023-03-29T06:39:19.108Z,9.01
2023-03-29T06:40:19.150Z,9.06
2023-03-29T06:41:19.094Z,9.08
2023-03-29T06:42:21.565Z,9.09
2023-03-29T06:43:19.080Z,9.16
2023-03-29T06:44:20.898Z,9.14
2023-03-29T06:45:20.628Z,9.01
2023-03-29T06:46:19.103Z,9.14
2023-03-29T06:47:19.043Z,9.08
2023-03-29T06:48:19.036Z,9.06
2023-03-29T06:49:19.023Z,9.03
2023-03-29T06:50:19.021Z,9.09
2023-03-29T06:51:21.109Z,9.22
2023-03-29T06:52:19.004Z,9.15
2023-03-29T06:53:18.986Z,9.22
2023-03-29T06:54:18.988Z,9.29
2023-03-29T06:55:18.983Z,9.33
2023-03-29T06:56:18.976Z,9.36
2023-03-29T06:57:19.030Z,9.24
2023-03-29T06:58:18.962Z,9.32
2023-03-29T06:59:18.966Z,9.42
2023-03-29T07:00:18.954Z,9.41
2023-03-29T07:01:19.029Z,9.50
2023-03-29T07:02:18.925Z,9.48
2023-03-29T07:03:18.915Z,9.57
2023-03-29T07:04:18.942Z,9.51
2023-03-29T07:05:18.923Z,9.55
2023-03-29T07:06:18.911Z,9.57
2023-03-29T07:07:18.876Z,9.65
2023-03-29T07:08:18.894Z,9.66
2023-03-29T07:09:19.485Z,9.69
2023-03-29T07:10:18.861Z,9.75
2023-03-29T07:11:18.866Z,9.67
2023-03-29T07:12:18.851Z,9.77
2023-03-29T07:13:18.843Z,9.67
2023-03-29T07:14:18.826Z,9.73
2023-03-29T07:15:18.834Z,9.72
2023-03-29T07:16:18.866Z,9.70
2023-03-29T07:17:18.818Z,9.62
2023-03-29T07:18:18.801Z,9.69
2023-03-29T07:19:18.977Z,9.69
2023-03-29T07:20:18.799Z,9.72
2023-03-29T07:21:18.768Z,9.66
2023-03-29T07:22:21.415Z,9.72
2023-03-29T07:23:18.770Z,9.60
2023-03-29T07:24:18.753Z,9.57
2023-03-29T07:25:18.768Z,9.62
2023-03-29T07:26:28.582Z,9.63
2023-03-29T07:27:18.763Z,9.65
2023-03-29T07:28:18.722Z,9.59
2023-03-29T07:29:18.721Z,9.60
2023-03-29T07:30:18.715Z,9.65
2023-03-29T07:31:18.705Z,9.72
2023-03-29T07:32:18.743Z,9.72
2023-03-29T07:33:18.796Z,9.88
2023-03-29T07:34:18.679Z,9.81
2023-03-29T07:35:18.671Z,9.84
2023-03-29T07:36:18.714Z,9.88
2023-03-29T07:37:18.654Z,10.02
2023-03-29T07:38:18.650Z,9.94
2023-03-29T07:39:18.648Z,9.94
2023-03-29T07:40:18.632Z,9.98
2023-03-29T07:41:18.640Z,9.85
2023-03-29T07:42:18.622Z,9.94
2023-03-29T07:43:18.625Z,10.01
2023-03-29T07:44:18.607Z,9.99
2023-03-29T07:45:18.599Z,10.05
2023-03-29T07:46:18.661Z,10.09
2023-03-29T07:47:18.584Z,10.17
2023-03-29T07:48:18.583Z,10.16
2023-03-29T07:49:20.341Z,10.20
2023-03-29T07:50:19.415Z,10.28
2023-03-29T07:51:18.550Z,10.27
2023-03-29T07:52:18.546Z,10.28
2023-03-29T07:53:18.551Z,10.23
2023-03-29T07:54:18.521Z,10.38
2023-03-29T07:55:18.595Z,10.34
2023-03-29T07:56:18.518Z,10.41
2023-03-29T07:57:18.553Z,10.39
2023-03-29T07:58:19.420Z,10.39
2023-03-29T07:59:18.492Z,10.41
2023-03-29T08:00:18.536Z,10.46
2023-03-29T08:01:19.695Z,10.48
2023-03-29T08:02:18.482Z,10.43
2023-03-29T08:03:18.599Z,10.58
2023-03-29T08:04:18.526Z,10.57
2023-03-29T08:05:26.084Z,10.60
2023-03-29T08:06:18.449Z,10.68
2023-03-29T08:07:18.954Z,10.67
2023-03-29T08:08:18.426Z,10.68
2023-03-29T08:09:18.425Z,10.70
2023-03-29T08:10:18.416Z,10.79
2023-03-29T08:11:18.415Z,10.85
2023-03-29T08:12:18.400Z,10.86
2023-03-29T08:13:18.403Z,10.87
2023-03-29T08:14:18.390Z,10.87
2023-03-29T08:15:18.384Z,10.93
2023-03-29T08:16:18.416Z,11.04
2023-03-29T08:17:18.373Z,11.01
2023-03-29T08:18:18.362Z,11.00
2023-03-29T08:19:18.346Z,11.05
2023-03-29T08:20:18.357Z,11.12
2023-03-29T08:21:18.933Z,11.15
2023-03-29T08:22:18.335Z,11.11
2023-03-29T08:23:18.933Z,11.12
2023-03-29T08:24:20.813Z,11.11
2023-03-29T08:25:18.318Z,11.19
2023-03-29T08:26:18.309Z,11.11
2023-03-29T08:27:18.297Z,11.12
2023-03-29T08:28:18.293Z,11.28
2023-03-29T08:29:18.288Z,11.27
2023-03-29T08:30:18.282Z,11.30
2023-03-29T08:31:18.306Z,11.22
2023-03-29T08:32:18.277Z,11.33
2023-03-29T08:33:18.309Z,11.48
2023-03-29T08:34:18.255Z,11.51
2023-03-29T08:35:18.255Z,11.43
2023-03-29T08:36:18.326Z,11.49
2023-03-29T08:37:18.226Z,11.41
2023-03-29T08:38:18.255Z,11.41
2023-03-29T08:39:19.535Z,11.34
2023-03-29T08:40:18.222Z,11.33
2023-03-29T08:41:18.222Z,11.40
2023-03-29T08:42:18.197Z,11.40
2023-03-29T08:43:18.193Z,11.34
2023-03-29T08:44:18.191Z,11.31
2023-03-29T08:45:18.176Z,11.30
2023-03-29T08:46:18.219Z,11.30
2023-03-29T08:47:18.162Z,11.40
2023-03-29T08:48:18.145Z,11.33
2023-03-29T08:49:18.161Z,11.28
2023-03-29T08:50:18.154Z,11.27
2023-03-29T08:51:18.138Z,11.40
2023-03-29T08:52:18.146Z,11.48
2023-03-29T08:53:18.120Z,11.43
2023-03-29T08:54:18.116Z,11.43
2023-03-29T08:55:18.572Z,11.40
2023-03-29T08:56:18.108Z,11.54
2023-03-29T08:57:18.137Z,11.54
2023-03-29T08:58:18.093Z,11.43
2023-03-29T08:59:18.076Z,11.54
2023-03-29T09:00:18.073Z,11.55
2023-03-29T09:01:18.109Z,11.61
2023-03-29T09:02:18.136Z,11.56
2023-03-29T09:03:18.146Z,11.49
2023-03-29T09:04:18.043Z,11.55
2023-03-29T09:05:18.041Z,11.55
2023-03-29T09:06:18.032Z,11.58
2023-03-29T09:07:18.020Z,11.64
2023-03-29T09:08:18.024Z,11.59
2023-03-29T09:09:18.014Z,11.62
2023-03-29T09:10:18.030Z,11.64
2023-03-29T09:11:17.994Z,11.79
2023-03-29T09:12:17.990Z,11.76
2023-03-29T09:13:18.072Z,11.77
2023-03-29T09:14:17.986Z,11.77
2023-03-29T09:15:17.969Z,11.76
2023-03-29T09:16:18.029Z,11.71
2023-03-29T09:17:17.953Z,11.79
2023-03-29T09:18:17.984Z,11.71
2023-03-29T09:19:17.968Z,11.77
2023-03-29T09:20:18.043Z,11.76
2023-03-29T09:21:17.933Z,11.88
2023-03-29T09:22:17.930Z,11.77
2023-03-29T09:23:17.940Z,11.77
2023-03-29T09:24:17.987Z,11.82
2023-03-29T09:25:17.892Z,11.79
2023-03-29T09:26:17.888Z,11.85
2023-03-29T09:27:17.868Z,11.85
2023-03-29T09:28:20.454Z,11.85
2023-03-29T09:29:17.874Z,11.82
2023-03-29T09:30:18.037Z,11.85
2023-03-29T09:31:17.883Z,11.89
2023-03-29T09:32:17.849Z,11.96
2023-03-29T09:33:17.838Z,12.00
2023-03-29T09:34:17.837Z,12.00
2023-03-29T09:35:17.826Z,11.97
2023-03-29T09:36:17.816Z,12.11
2023-03-29T09:37:17.812Z,12.03
2023-03-29T09:38:17.820Z,12.13
2023-03-29T09:39:17.804Z,12.13
2023-03-29T09:40:19.510Z,12.00
2023-03-29T09:41:17.786Z,12.17
2023-03-29T09:42:17.781Z,12.28
2023-03-29T09:43:17.769Z,12.22
2023-03-29T09:44:30.276Z,12.23
2023-03-29T09:45:17.756Z,12.17
2023-03-29T09:46:17.795Z,12.23
2023-03-29T09:47:17.760Z,12.25
2023-03-29T09:48:17.751Z,12.29
2023-03-29T09:49:17.758Z,12.41
2023-03-29T09:50:30.185Z,12.38
2023-03-29T09:51:17.735Z,12.47
2023-03-29T09:52:17.714Z,12.46
2023-03-29T09:53:17.727Z,12.50
2023-03-29T09:54:17.721Z,12.43
2023-03-29T09:55:17.689Z,12.59
2023-03-29T09:56:17.690Z,12.48
2023-03-29T09:57:17.718Z,12.48
2023-03-29T09:58:17.704Z,12.43
2023-03-29T09:59:17.666Z,12.51
2023-03-29T10:00:17.664Z,12.54
2023-03-29T10:01:17.738Z,12.59
2023-03-29T10:02:17.647Z,12.65
2023-03-29T10:03:17.648Z,12.54
2023-03-29T10:04:17.651Z,12.66
2023-03-29T10:05:17.623Z,12.63
2023-03-29T10:06:17.629Z,12.61
2023-03-29T10:07:17.620Z,12.55
2023-03-29T10:08:19.449Z,12.71
2023-03-29T10:09:17.604Z,12.65
2023-03-29T10:10:17.603Z,12.73
2023-03-29T10:11:17.589Z,12.76
2023-03-29T10:12:17.587Z,12.93
2023-03-29T10:13:17.577Z,12.93
2023-03-29T10:14:17.575Z,13.05
2023-03-29T10:15:29.166Z,12.91
2023-03-29T10:16:17.585Z,12.98
2023-03-29T10:17:17.550Z,12.98
2023-03-29T10:18:17.540Z,12.95
2023-03-29T10:19:17.546Z,12.96
2023-03-29T10:20:17.529Z,12.93
2023-03-29T10:21:17.532Z,12.99
2023-03-29T10:22:17.518Z,12.95
2023-03-29T10:23:17.524Z,12.93
2023-03-29T10:24:17.510Z,12.96
2023-03-29T10:25:17.494Z,12.88
2023-03-29T10:26:17.497Z,12.88
2023-03-29T10:27:17.489Z,12.91
2023-03-29T10:28:17.514Z,12.96
2023-03-29T10:29:17.477Z,12.96
2023-03-29T10:30:18.013Z,12.96
2023-03-29T10:31:49.204Z,12.95
2023-03-29T10:32:41.055Z,12.99
2023-03-29T10:33:17.451Z,13.08
2023-03-29T10:34:22.034Z,13.11
2023-03-29T10:35:22.040Z,13.16
2023-03-29T10:36:17.511Z,13.26
2023-03-29T10:37:17.425Z,13.30
2023-03-29T10:38:17.438Z,13.30
2023-03-29T10:39:17.408Z,13.36
2023-03-29T10:40:17.401Z,13.46
2023-03-29T10:41:17.397Z,13.55
2023-03-29T10:42:17.395Z,13.54
2023-03-29T10:43:17.427Z,13.64
2023-03-29T10:44:17.389Z,13.75
2023-03-29T10:45:17.377Z,13.80
2023-03-29T10:46:17.462Z,13.85
2023-03-29T10:47:17.355Z,13.85
2023-03-29T10:48:17.352Z,13.98
2023-03-29T10:49:17.358Z,14.03
2023-03-29T10:50:17.360Z,14.05
2023-03-29T10:51:17.341Z,14.15
2023-03-29T10:52:17.368Z,14.31
2023-03-29T10:53:17.330Z,14.30
2023-03-29T10:54:17.331Z,14.31
2023-03-29T10:55:17.322Z,14.31
2023-03-29T10:56:17.332Z,14.33
2023-03-29T10:57:17.337Z,14.33
2023-03-29T10:58:17.308Z,14.36
2023-03-29T10:59:17.307Z,14.23
2023-03-29T11:00:17.351Z,14.26
2023-03-29T11:01:17.303Z,14.28
2023-03-29T11:02:17.326Z,14.27
2023-03-29T11:03:19.519Z,14.22
2023-03-29T11:04:17.278Z,14.28
2023-03-29T11:05:17.272Z,14.28
2023-03-29T11:06:17.259Z,14.38
2023-03-29T11:07:17.276Z,14.28
2023-03-29T11:08:17.239Z,14.34
2023-03-29T11:09:17.267Z,14.36
2023-03-29T11:10:17.231Z,14.28
2023-03-29T11:11:17.225Z,14.27
2023-03-29T11:12:17.231Z,14.23
2023-03-29T11:13:17.208Z,14.21
2023-03-29T11:14:17.214Z,14.31
2023-03-29T11:15:17.207Z,14.33
2023-03-29T11:16:17.246Z,14.30
2023-03-29T11:17:17.199Z,14.37
2023-03-29T11:18:17.189Z,14.44
2023-03-29T11:19:17.228Z,14.48
2023-03-29T11:20:17.179Z,14.45
2023-03-29T11:21:17.170Z,14.46
2023-03-29T11:22:17.172Z,14.38
2023-03-29T11:23:17.203Z,14.44
2023-03-29T11:24:17.158Z,14.49
2023-03-29T11:25:17.181Z,14.52
2023-03-29T11:26:17.144Z,14.52
2023-03-29T11:27:17.150Z,14.58
2023-03-29T11:28:17.131Z,14.52
2023-03-29T11:29:17.131Z,14.69
2023-03-29T11:30:17.152Z,14.78
2023-03-29T11:31:17.147Z,14.77
2023-03-29T11:32:17.104Z,14.90
2023-03-29T11:33:17.108Z,14.89
2023-03-29T11:34:17.099Z,14.97
2023-03-29T11:35:17.089Z,14.95
2023-03-29T11:36:17.122Z,14.90
2023-03-29T11:37:17.090Z,14.92
2023-03-29T11:38:17.110Z,14.86
2023-03-29T11:39:17.076Z,14.87
2023-03-29T11:40:17.069Z,14.92
2023-03-29T11:41:17.068Z,14.95
2023-03-29T11:42:17.056Z,14.97
2023-03-29T11:43:17.057Z,15.08
2023-03-29T11:44:17.046Z,15.07
2023-03-29T11:45:17.049Z,15.08
2023-03-29T11:46:17.076Z,15.15
2023-03-29T11:47:17.040Z,15.10
2023-03-29T11:48:17.034Z,15.25
2023-03-29T11:49:17.032Z,15.23
2023-03-29T11:50:17.532Z,15.30
2023-03-29T11:51:17.014Z,15.27
2023-03-29T11:52:17.009Z,15.22
2023-03-29T11:53:17.005Z,15.27
2023-03-29T11:54:17.032Z,15.23
2023-03-29T11:55:16.998Z,15.29
2023-03-29T11:56:17.012Z,15.30
2023-03-29T11:57:17.019Z,15.29
2023-03-29T11:58:16.979Z,15.33
2023-03-29T11:59:16.983Z,15.33
2023-03-29T12:00:17.005Z,15.45
2023-03-29T12:01:16.971Z,15.44
2023-03-29T12:02:16.985Z,15.32
2023-03-29T12:03:17.012Z,15.41
2023-03-29T12:04:17.017Z,15.43
2023-03-29T12:05:16.938Z,15.45
2023-03-29T12:06:16.949Z,15.58
2023-03-29T12:07:31.558Z,15.56
2023-03-29T12:08:16.944Z,15.65
2023-03-29T12:09:17.017Z,15.76
2023-03-29T12:10:16.947Z,15.77
2023-03-29T12:11:16.920Z,15.72
2023-03-29T12:12:16.944Z,15.80
2023-03-29T12:13:16.917Z,15.83
2023-03-29T12:14:16.909Z,16.00
2023-03-29T12:15:16.920Z,16.02
2023-03-29T12:16:16.930Z,16.00
2023-03-29T12:17:16.903Z,16.08
2023-03-29T12:18:16.885Z,16.08
2023-03-29T12:19:16.893Z,16.10
2023-03-29T12:20:16.872Z,16.14
2023-03-29T12:21:16.874Z,16.21
2023-03-29T12:22:16.873Z,16.22
2023-03-29T12:23:16.865Z,16.37
2023-03-29T12:24:16.878Z,16.33
2023-03-29T12:25:18.755Z,16.29
2023-03-29T12:26:16.856Z,16.39
2023-03-29T12:27:16.870Z,16.37
2023-03-29T12:28:16.853Z,16.43
2023-03-29T12:29:16.841Z,16.55
2023-03-29T12:30:16.854Z,16.55
2023-03-29T12:31:16.896Z,16.55
2023-03-29T12:32:16.836Z,16.58
2023-03-29T12:33:16.887Z,16.57
2023-03-29T12:34:16.845Z,16.46
2023-03-29T12:35:16.831Z,16.44
2023-03-29T12:36:16.834Z,16.37
2023-03-29T12:37:16.819Z,16.36
2023-03-29T12:38:16.812Z,16.43
2023-03-29T12:39:16.814Z,16.42
2023-03-29T12:40:16.801Z,16.49
2023-03-29T12:41:16.815Z,16.57
2023-03-29T12:42:16.798Z,16.58
2023-03-29T12:43:16.800Z,16.55
2023-03-29T12:44:16.782Z,16.40
2023-03-29T12:45:16.777Z,16.42
2023-03-29T12:46:16.842Z,16.57
2023-03-29T12:47:16.781Z,16.52
2023-03-29T12:48:16.767Z,16.52
2023-03-29T12:49:18.606Z,16.54
2023-03-29T12:50:16.760Z,16.43
2023-03-29T12:51:16.767Z,16.46
2023-03-29T12:52:16.764Z,16.47
2023-03-29T12:53:16.747Z,16.42
2023-03-29T12:54:16.748Z,16.57
2023-03-29T12:55:16.741Z,16.57
2023-03-29T12:56:16.759Z,16.49
2023-03-29T12:57:16.786Z,16.54
2023-03-29T12:58:16.731Z,16.54
2023-03-29T12:59:16.737Z,16.54
2023-03-29T13:00:16.732Z,16.62
2023-03-29T13:01:16.831Z,16.64
2023-03-29T13:02:16.838Z,16.73
2023-03-29T13:03:16.772Z,16.88
2023-03-29T13:04:16.708Z,16.90
2023-03-29T13:05:16.794Z,16.92
2023-03-29T13:06:16.691Z,16.99
2023-03-29T13:07:16.687Z,17.10
2023-03-29T13:08:16.688Z,17.14
2023-03-29T13:09:16.677Z,17.10